EDT,Max TemperatureF,Mean TemperatureF,Min TemperatureF,Max Dew PointF,MeanDew PointF,Min DewpointF,Max Humidity, Mean Humidity, Min Humidity, Max Sea Level PressureIn, Mean Sea Level PressureIn, Min Sea Level PressureIn, Max VisibilityMiles, Mean VisibilityMiles, Min VisibilityMiles, Max Wind SpeedMPH, Mean Wind SpeedMPH, Max Gust SpeedMPH,PrecipitationIn, CloudCover, Events, WindDirDegrees
2013-7-1,79,72,65,68,65,63,93,79,64,29.96,29.90,29.84,10,9,3,14,2,21,0.21,6,Rain,354
2013-7-2,82,74,65,68,66,64,93,78,62,30.06,30.01,29.94,10,9,6,9,3,14,T,5,Rain,160
2013-7-3,84,76,68,70,68,66,93,76,58,30.17,30.13,30.06,10,8,2,12,4,17,0.12,4,Rain-Thunderstorm,143
2013-7-4,78,74,69,70,68,64,97,86,74,30.23,30.18,30.14,10,9,5,6,2,8,0.09,5,Rain,167
2013-7-5,79,74,68,72,68,66,93,82,71,30.19,30.15,30.11,10,9,2,13,3,17,0.19,6,Rain-Thunderstorm,182
2013-7-6,85,76,67,72,69,66,97,81,65,30.19,30.15,30.04,10,9,2,15,4,18,0.01,4,Rain,162
2013-7-7,79,73,66,68,64,60,84,74,64,30.14,30.09,30.03,10,10,10,9,2,14,0.01,4,Rain-Thunderstorm,230
2013-7-8,83,73,62,70,66,60,93,79,65,30.14,30.11,30.07,10,8,2,12,3,16,0.24,4,Rain-Thunderstorm,205
2013-7-9,85,77,69,74,70,66,93,82,70,30.11,30.04,29.97,10,6,1,16,4,23,0.73,7,Rain-Thunderstorm,183
2013-7-10,86,75,66,75,70,64,100,85,70,30.03,29.94,29.81,10,8,1,10,5,17,0.44,6,Rain-Thunderstorm,168
2013-7-11,86,73,59,64,59,54,87,69,50,30.04,30.00,29.98,10,10,10,13,6,17,0.00,4,,2
2013-7-12,77,67,56,63,59,55,93,76,58,30.12,30.08,30.04,10,10,7,13,3,16,0.01,2,Rain,40
2013-7-13,84,73,61,66,63,59,93,74,54,30.22,30.16,30.11,10,9,4,12,3,15,0.00,1,,104
2013-7-14,87,76,65,71,67,64,100,79,57,30.28,30.24,30.20,10,8,2,13,3,17,0.00,1,,156
2013-7-15,90,79,67,72,69,66,100,75,50,30.34,30.30,30.25,10,10,9,7,2,9,0.00,0,,194
2013-7-16,90,80,69,74,71,66,100,78,56,30.33,30.30,30.27,10,9,2,12,2,15,T,2,Rain-Thunderstorm,340
2013-7-17,92,81,70,74,71,70,100,76,52,30.33,30.28,30.17,10,4,0,10,3,14,0.01,4,Fog,309
2013-7-18,93,83,72,75,72,69,94,73,52,30.19,30.14,30.04,10,6,0,9,2,13,0.00,2,Fog,232
2013-7-19,90,81,72,73,71,68,93,75,56,30.04,29.97,29.89,10,6,1,8,4,12,0.36,2,Rain-Thunderstorm,180
2013-7-20,80,76,71,70,68,65,93,80,67,29.95,29.90,29.86,10,8,4,5,3,7,0.02,3,Rain-Thunderstorm,222
2013-7-21,85,77,69,70,68,66,93,76,58,30.00,29.95,29.92,10,6,1,12,1,16,0.29,5,Rain-Thunderstorm,174
2013-7-22,75,71,67,72,68,64,93,88,82,29.98,29.88,29.78,10,4,0,9,1,13,0.85,5,Fog-Rain,171
2013-7-23,82,74,65,71,65,63,93,81,69,29.83,29.78,29.69,10,6,1,21,3,29,0.82,6,Rain-Thunderstorm,213
2013-7-24,73,64,55,64,57,51,93,73,53,30.03,29.91,29.80,10,9,2,14,5,17,0.00,4,,14
2013-7-25,77,64,51,55,52,48,93,68,43,30.11,30.07,30.04,10,9,2,12,3,15,0.00,0,,40
2013-7-26,79,66,52,60,54,48,93,69,45,30.13,30.08,30.00,10,8,0,10,2,14,0.00,0,Fog,189
2013-7-27,72,67,62,65,62,59,93,83,73,29.99,29.91,29.85,10,7,3,13,3,18,0.10,5,Rain,187
2013-7-28,72,65,57,62,55,50,93,70,47,30.05,29.95,29.86,10,8,0,13,3,20,0.00,4,Fog,266
2013-7-29,73,63,53,57,53,50,93,71,49,30.22,30.13,30.05,10,10,8,14,3,18,0.01,4,,233
2013-7-30,78,66,53,61,55,51,93,70,47,30.26,30.22,30.17,10,6,0,8,1,12,0.00,2,Fog,186
2013-7-31,76,68,59,66,63,56,90,80,69,30.17,30.05,29.96,10,8,2,7,1,9,0.05,6,Rain,154